SPQU/AQP METAR and TAF weather

Enter ICAO airport designator
Station Type Date Time Source
SPQU METAR 2019/10/22 17:00 UTC NOAA

SPQU 221700Z 24010KT 210V300 CAVOK 19/M01 Q1027 NOSIG RMK PP000


Station Type Date Time Source
SPQU Decoded METAR 2019/10/22 17:00 UTC NOAA

Arequipa, Peru (SPQU) 16-19S 071-33W 2539M
Oct 22, 2019 - 01:00 PM EDT / 2019.10.22 1700 UTC
Wind: from the WSW (240 degrees) at 12 MPH (10 KT) (direction variable):0
Visibility: greater than 7 mile(s):0
Temperature: 66 F (19 C)
Dew Point: 30 F (-1 C)
Relative Humidity: 25%
Pressure (altimeter): 30.33 in. Hg (1027 hPa)
ob: SPQU 221700Z 24010KT 210V300 CAVOK 19/M01 Q1027 NOSIG RMK PP000
cycle: 17

Station Type Date Time Source
SPQU TAF 2019/10/22 12:33 UTC NOAA

TAF SPQU 221100Z 2212/2312 03005KT CAVOK TX21/2217Z TN09/2310Z
BECMG 2214/2216 24010KT
BECMG 2223/2301 05005KT

Example: see airport list